Time;durP1;ratioP1;P1;durP2;ratioP2;P2;SDS_P1;SDS_P2;PMS_P1;PMS_P2;Temp;Humidity;BMP_temperature;BMP_pressure;BME280_temperature;BME280_humidity;BME280_pressure;Samples;Min_cycle;Max_cycle;Signal;HPM_P1;HPM_P2
2022/06/26 00:01:26;;;;;;;8.77;8.07;;;21.90;99.90;;;;;;5122823;28;20189;-69
2022/06/26 00:03:52;;;;;;;8.83;8.13;;;21.90;99.90;;;;;;5128998;28;20211;-71
2022/06/26 00:06:17;;;;;;;8.10;7.47;;;21.80;99.90;;;;;;5126705;28;20698;-69
2022/06/26 00:08:43;;;;;;;8.40;7.80;;;21.80;99.90;;;;;;5112728;28;20266;-69
2022/06/26 00:11:09;;;;;;;8.03;7.53;;;21.80;99.90;;;;;;5127591;28;20185;-69
2022/06/26 00:13:34;;;;;;;8.80;8.27;;;21.80;99.90;;;;;;5123208;28;20225;-69
2022/06/26 00:16:00;;;;;;;8.93;8.20;;;21.80;99.90;;;;;;5122402;28;20688;-69
2022/06/26 00:18:26;;;;;;;9.03;8.43;;;21.80;99.90;;;;;;5119680;28;20195;-69
2022/06/26 00:20:51;;;;;;;10.90;9.77;;;21.80;99.90;;;;;;5111685;28;20230;-69
2022/06/26 00:23:17;;;;;;;7.67;7.20;;;21.90;99.90;;;;;;5126234;28;20639;-69
2022/06/26 00:25:43;;;;;;;8.40;7.90;;;21.90;99.90;;;;;;5116690;28;20214;-69
2022/06/26 00:28:09;;;;;;;7.03;6.53;;;21.90;99.90;;;;;;5126875;27;20266;-69
2022/06/26 00:30:35;;;;;;;8.03;7.43;;;22.00;99.90;;;;;;5135729;27;20182;-69
2022/06/26 00:33:01;;;;;;;7.47;7.03;;;22.00;99.90;;;;;;5137160;27;20171;-69
2022/06/26 00:35:26;;;;;;;9.50;8.90;;;22.00;99.90;;;;;;5134024;27;20511;-68
2022/06/26 00:37:52;;;;;;;11.60;10.70;;;21.90;99.90;;;;;;5126497;27;20252;-68
2022/06/26 00:40:17;;;;;;;12.53;11.30;;;21.90;99.90;;;;;;5122637;27;20180;-69
2022/06/26 00:42:43;;;;;;;12.20;11.20;;;21.80;99.90;;;;;;5116043;28;20317;-69
2022/06/26 00:45:09;;;;;;;11.90;11.10;;;21.80;99.90;;;;;;5127921;27;20183;-69
2022/06/26 00:47:35;;;;;;;12.07;11.27;;;21.80;99.90;;;;;;5134735;27;20279;-69
2022/06/26 00:50:01;;;;;;;11.60;10.80;;;21.80;99.90;;;;;;5132908;27;20492;-69
2022/06/26 00:52:28;;;;;;;12.20;11.23;;;21.80;99.90;;;;;;5134315;27;20203;-69
2022/06/26 00:54:54;;;;;;;12.13;11.13;;;21.80;99.90;;;;;;5116104;27;20539;-69
2022/06/26 00:57:21;;;;;;;13.00;12.10;;;21.90;99.90;;;;;;5101942;28;20459;-69
2022/06/26 00:59:48;;;;;;;11.90;11.10;;;21.90;99.90;;;;;;5116436;27;20413;-69
2022/06/26 01:02:15;;;;;;;12.00;11.17;;;21.90;99.90;;;;;;5135936;27;20408;-69
2022/06/26 01:04:43;;;;;;;11.60;10.63;;;22.00;99.90;;;;;;5135229;27;20441;-69
2022/06/26 01:07:10;;;;;;;10.80;10.00;;;22.00;99.90;;;;;;5130092;27;20456;-69
2022/06/26 01:09:35;;;;;;;10.50;9.80;;;22.00;99.90;;;;;;5115980;28;20413;-69
2022/06/26 01:12:02;;;;;;;10.97;10.17;;;22.00;99.90;;;;;;5115917;28;20420;-69
2022/06/26 01:14:30;;;;;;;11.00;10.20;;;22.10;99.90;;;;;;5111772;27;20516;-69
2022/06/26 01:16:56;;;;;;;11.33;10.43;;;22.10;99.90;;;;;;5110717;27;20848;-69
2022/06/26 01:19:23;;;;;;;10.93;10.03;;;22.10;99.90;;;;;;5116760;27;20444;-69
2022/06/26 01:21:49;;;;;;;10.87;10.07;;;22.10;99.90;;;;;;5136308;27;20685;-69
2022/06/26 01:24:18;;;;;;;9.80;9.07;;;22.10;99.90;;;;;;5126012;27;20657;-69
2022/06/26 01:26:44;;;;;;;9.80;9.10;;;22.20;99.90;;;;;;5109988;27;20631;-69
2022/06/26 01:29:10;;;;;;;8.60;8.10;;;22.20;99.90;;;;;;5102218;28;20429;-69
2022/06/26 01:31:36;;;;;;;9.67;9.03;;;22.20;99.90;;;;;;5115192;28;20417;-69
2022/06/26 01:34:11;;;;;;;9.23;8.63;;;22.20;99.90;;;;;;5115387;28;20409;-69
2022/06/26 01:36:37;;;;;;;8.77;8.17;;;22.20;99.90;;;;;;5114306;28;20549;-69
2022/06/26 01:39:04;;;;;;;8.73;8.13;;;22.20;99.90;;;;;;5119023;27;20445;-69
2022/06/26 01:41:32;;;;;;;9.37;8.67;;;22.20;99.90;;;;;;5133983;27;20179;-69
2022/06/26 01:43:58;;;;;;;9.23;8.67;;;22.20;99.90;;;;;;5133532;27;20473;-68
2022/06/26 01:46:28;;;;;;;8.63;8.03;;;22.20;99.90;;;;;;5135406;27;20784;-69
2022/06/26 01:48:54;;;;;;;8.40;7.80;;;22.20;99.90;;;;;;5131988;27;20518;-69
2022/06/26 01:51:20;;;;;;;8.60;8.00;;;22.20;99.90;;;;;;5133699;27;20463;-69
2022/06/26 01:53:46;;;;;;;8.40;7.90;;;22.20;99.90;;;;;;5129204;27;20780;-69
2022/06/26 01:56:12;;;;;;;9.40;8.67;;;22.20;99.90;;;;;;5100380;27;20490;-69
2022/06/26 01:58:38;;;;;;;8.87;8.27;;;22.20;99.90;;;;;;5131289;27;20175;-69
2022/06/26 02:01:05;;;;;;;7.90;7.40;;;22.20;99.90;;;;;;5110717;28;20203;-69
2022/06/26 02:03:31;;;;;;;8.53;7.93;;;22.10;99.90;;;;;;5113859;28;20414;-70
2022/06/26 02:05:56;;;;;;;8.33;7.67;;;22.10;99.90;;;;;;5126101;27;20436;-69
2022/06/26 02:08:25;;;;;;;9.00;8.30;;;22.10;99.90;;;;;;5134766;27;20419;-69
2022/06/26 02:13:45;;;;;;;8.27;7.77;;;22.00;99.90;;;;;;5133060;27;20778;-69
2022/06/26 02:16:20;;;;;;;8.90;8.30;;;22.00;99.90;;;;;;5121515;27;20560;-70
2022/06/26 02:18:49;;;;;;;8.30;7.70;;;21.90;99.90;;;;;;5113977;27;20444;-68
2022/06/26 02:21:19;;;;;;;8.17;7.67;;;21.80;99.90;;;;;;5139083;27;20552;-69
2022/06/26 02:23:47;;;;;;;8.70;7.90;;;21.80;99.90;;;;;;5114312;28;20449;-69
2022/06/26 02:26:13;;;;;;;7.90;7.20;;;21.70;99.90;;;;;;5112732;27;20521;-69
2022/06/26 02:28:40;;;;;;;8.60;7.87;;;21.70;99.90;;;;;;5127368;27;20430;-69
2022/06/26 02:31:06;;;;;;;8.30;7.80;;;21.60;99.90;;;;;;5118009;27;20187;-69
2022/06/26 02:33:33;;;;;;;8.27;7.77;;;21.60;99.90;;;;;;5098523;28;20453;-69
2022/06/26 02:35:59;;;;;;;8.43;7.93;;;21.50;99.90;;;;;;5104139;28;21007;-69
2022/06/26 02:38:25;;;;;;;8.70;8.10;;;21.50;99.90;;;;;;5132406;27;20496;-68
2022/06/26 02:40:52;;;;;;;8.70;8.20;;;21.50;99.90;;;;;;5134642;27;20413;-69
2022/06/26 02:43:19;;;;;;;9.10;8.50;;;21.40;99.90;;;;;;5103331;27;20797;-70
2022/06/26 02:45:46;;;;;;;10.10;9.40;;;21.50;99.90;;;;;;5126976;27;20557;-69
2022/06/26 02:48:12;;;;;;;9.63;9.00;;;21.50;99.90;;;;;;5132421;27;20468;-72
2022/06/26 02:50:38;;;;;;;10.13;9.43;;;21.50;99.90;;;;;;5109461;27;20444;-69
2022/06/26 02:53:10;;;;;;;10.50;9.80;;;21.40;99.90;;;;;;5110770;27;20512;-69
2022/06/26 02:55:36;;;;;;;10.07;9.30;;;21.40;99.90;;;;;;5109313;27;20191;-69
2022/06/26 02:58:03;;;;;;;10.17;9.47;;;21.40;99.90;;;;;;5111985;27;20453;-70
2022/06/26 03:00:28;;;;;;;10.47;9.73;;;21.40;99.90;;;;;;5111067;28;20224;-70
2022/06/26 03:02:54;;;;;;;10.60;9.90;;;21.40;99.90;;;;;;5107905;28;20429;-69
2022/06/26 03:05:20;;;;;;;9.53;8.93;;;21.40;99.90;;;;;;5125848;27;20209;-70
2022/06/26 03:07:45;;;;;;;10.57;9.83;;;21.40;99.90;;;;;;5119175;27;20212;-69
2022/06/26 03:10:11;;;;;;;10.87;10.17;;;21.40;99.90;;;;;;5114733;27;20201;-69
2022/06/26 03:12:45;;;;;;;11.27;10.47;;;21.40;99.90;;;;;;5119799;27;20532;-70
2022/06/26 03:15:12;;;;;;;11.40;10.60;;;21.40;99.90;;;;;;5127877;27;20183;-70
2022/06/26 03:17:38;;;;;;;12.60;11.50;;;21.50;99.90;;;;;;5098404;28;20872;-68
2022/06/26 03:20:07;;;;;;;12.67;11.67;;;21.40;99.90;;;;;;5112528;27;20527;-70
2022/06/26 03:22:32;;;;;;;11.73;10.97;;;21.50;99.90;;;;;;5125493;27;20515;-70
2022/06/26 03:24:58;;;;;;;13.60;12.43;;;21.50;99.90;;;;;;5104558;27;20529;-69
2022/06/26 03:27:24;;;;;;;14.13;12.90;;;21.50;99.90;;;;;;5108435;28;20631;-69
2022/06/26 03:29:49;;;;;;;13.37;12.43;;;21.50;99.90;;;;;;5122468;27;20174;-70
2022/06/26 03:32:15;;;;;;;13.30;12.20;;;21.50;99.90;;;;;;5130936;27;20258;-70
2022/06/26 03:34:41;;;;;;;13.73;12.73;;;21.50;99.90;;;;;;5113982;27;20663;-70
2022/06/26 03:37:06;;;;;;;13.40;12.37;;;21.50;99.90;;;;;;5130045;27;20275;-69
2022/06/26 03:39:32;;;;;;;13.17;12.17;;;21.50;99.90;;;;;;5124435;27;20227;-69
2022/06/26 03:42:00;;;;;;;13.40;12.40;;;21.60;99.90;;;;;;5133756;27;20185;-70
2022/06/26 03:44:29;;;;;;;13.67;12.67;;;21.60;99.90;;;;;;5112826;27;20249;-70
2022/06/26 03:46:56;;;;;;;12.00;11.17;;;21.60;99.90;;;;;;5096306;28;20470;-69
2022/06/26 03:49:22;;;;;;;12.37;11.50;;;21.60;99.90;;;;;;5095127;28;20436;-69
2022/06/26 03:51:51;;;;;;;12.37;11.33;;;21.60;99.90;;;;;;5109602;28;20441;-70
2022/06/26 03:54:16;;;;;;;12.70;11.80;;;21.60;99.90;;;;;;5099321;28;20442;-70
2022/06/26 03:56:42;;;;;;;13.00;11.73;;;21.60;99.90;;;;;;5124939;27;20463;-70
2022/06/26 03:59:08;;;;;;;12.80;11.80;;;21.60;99.90;;;;;;5130799;27;20269;-69
2022/06/26 04:01:34;;;;;;;12.23;11.33;;;21.60;99.90;;;;;;5117527;27;20179;-69
2022/06/26 04:04:00;;;;;;;12.90;11.80;;;21.60;99.90;;;;;;5117727;27;20266;-69
2022/06/26 04:06:28;;;;;;;12.63;11.73;;;21.60;99.90;;;;;;5122452;27;20435;-69
2022/06/26 04:08:54;;;;;;;14.10;12.90;;;21.70;99.90;;;;;;5124543;27;20178;-69
2022/06/26 04:11:20;;;;;;;13.23;12.23;;;21.70;99.90;;;;;;5105021;28;20795;-69
2022/06/26 04:13:46;;;;;;;12.63;11.77;;;21.70;99.90;;;;;;5124588;27;20424;-70
2022/06/26 04:16:11;;;;;;;13.43;12.33;;;21.70;99.90;;;;;;5137424;27;20646;-69
2022/06/26 04:18:37;;;;;;;13.47;12.47;;;21.70;99.90;;;;;;5129465;27;20197;-70
2022/06/26 04:21:04;;;;;;;12.50;11.50;;;21.70;99.90;;;;;;5108009;27;20287;-69
2022/06/26 04:23:30;;;;;;;12.97;12.07;;;21.70;99.90;;;;;;5113684;28;20203;-69
2022/06/26 04:25:55;;;;;;;13.73;12.73;;;21.70;99.90;;;;;;5130288;27;20431;-70
2022/06/26 04:28:24;;;;;;;13.10;12.00;;;21.60;99.90;;;;;;5122033;27;20223;-70
2022/06/26 04:30:50;;;;;;;13.40;12.20;;;21.60;99.90;;;;;;5099775;27;20541;-69
2022/06/26 04:33:15;;;;;;;14.57;13.37;;;21.60;99.90;;;;;;5135757;27;20412;-70
2022/06/26 04:35:44;;;;;;;14.10;13.00;;;21.60;99.90;;;;;;5125835;27;20191;-70
2022/06/26 04:38:09;;;;;;;13.87;12.53;;;21.60;99.90;;;;;;5117479;27;20189;-69
2022/06/26 04:40:35;;;;;;;15.03;13.83;;;21.60;99.90;;;;;;5119240;27;20433;-69
2022/06/26 04:43:01;;;;;;;15.43;14.23;;;21.60;99.90;;;;;;5131148;27;20193;-69
2022/06/26 04:45:27;;;;;;;15.10;13.80;;;21.70;99.90;;;;;;5104877;27;20512;-69
2022/06/26 04:47:52;;;;;;;14.73;13.27;;;21.60;99.90;;;;;;5120370;27;20202;-70
2022/06/26 04:50:18;;;;;;;14.80;13.60;;;21.60;99.90;;;;;;5135600;27;20639;-69
2022/06/26 04:52:49;;;;;;;14.43;13.20;;;21.60;99.90;;;;;;5108707;27;20226;-69
2022/06/26 04:55:15;;;;;;;13.17;12.17;;;21.60;99.90;;;;;;5128421;27;20934;-69
2022/06/26 04:57:42;;;;;;;12.83;11.83;;;21.60;99.90;;;;;;5134803;27;20551;-69
2022/06/26 05:00:12;;;;;;;13.20;12.10;;;21.60;99.90;;;;;;5127890;27;20436;-69
2022/06/26 05:02:38;;;;;;;12.50;11.47;;;21.60;99.90;;;;;;5109234;27;20428;-69
2022/06/26 05:05:04;;;;;;;13.20;12.00;;;21.60;99.90;;;;;;5117206;27;20472;-69
2022/06/26 05:07:31;;;;;;;12.67;11.67;;;21.60;99.90;;;;;;5133222;27;20247;-69
2022/06/26 05:09:56;;;;;;;11.67;10.70;;;21.60;99.90;;;;;;5109403;27;20436;-69
2022/06/26 05:12:25;;;;;;;10.33;9.53;;;21.60;99.90;;;;;;5121210;27;20436;-70
2022/06/26 05:14:51;;;;;;;10.40;9.60;;;21.60;99.90;;;;;;5132731;27;20209;-69
2022/06/26 05:17:16;;;;;;;10.00;9.30;;;21.60;99.90;;;;;;5105590;27;20464;-70
2022/06/26 05:19:45;;;;;;;9.57;8.77;;;21.60;99.90;;;;;;5115252;27;20190;-69
2022/06/26 05:22:11;;;;;;;9.47;8.77;;;21.70;99.90;;;;;;5133067;27;20233;-70
2022/06/26 05:24:36;;;;;;;10.27;9.57;;;21.70;99.90;;;;;;5115498;27;20426;-69
2022/06/26 05:27:03;;;;;;;8.70;8.10;;;21.80;99.90;;;;;;5115245;27;20207;-69
2022/06/26 05:29:29;;;;;;;11.10;10.10;;;21.80;99.90;;;;;;5120166;27;20208;-69
2022/06/26 05:31:54;;;;;;;9.97;9.27;;;21.90;99.90;;;;;;5116577;27;20433;-69
2022/06/26 05:34:20;;;;;;;9.17;8.47;;;21.90;99.90;;;;;;5122721;27;20175;-70
2022/06/26 05:36:46;;;;;;;10.50;9.70;;;22.00;99.90;;;;;;5117266;27;20287;-69
2022/06/26 05:39:12;;;;;;;9.80;9.10;;;22.00;99.90;;;;;;5118737;27;20520;-71
2022/06/26 05:41:38;;;;;;;10.23;9.33;;;22.00;99.90;;;;;;5097473;28;20191;-70
2022/06/26 05:44:04;;;;;;;10.60;9.73;;;22.00;99.90;;;;;;5119720;27;20592;-69
2022/06/26 05:46:29;;;;;;;9.33;8.73;;;22.00;99.90;;;;;;5125463;27;20187;-69
2022/06/26 05:48:55;;;;;;;8.80;8.13;;;22.10;99.90;;;;;;5130777;27;20436;-71
2022/06/26 05:51:21;;;;;;;8.60;8.10;;;22.10;99.90;;;;;;5135051;27;20262;-70
2022/06/26 05:53:47;;;;;;;8.50;7.80;;;22.20;99.90;;;;;;5127607;27;20182;-70
2022/06/26 05:56:13;;;;;;;8.13;7.50;;;22.30;99.90;;;;;;5135801;27;20213;-70
2022/06/26 05:58:39;;;;;;;7.40;6.90;;;22.40;99.90;;;;;;5134777;27;20401;-71
2022/06/26 06:01:04;;;;;;;7.80;7.20;;;22.50;99.90;;;;;;5118031;27;20847;-71
2022/06/26 06:03:31;;;;;;;8.33;7.73;;;22.60;99.90;;;;;;5106491;27;20655;-71
2022/06/26 06:05:57;;;;;;;7.70;7.10;;;22.70;99.90;;;;;;5113246;28;20700;-70
2022/06/26 06:08:23;;;;;;;8.20;7.60;;;22.80;99.90;;;;;;5117923;27;20449;-70
2022/06/26 06:10:49;;;;;;;6.97;6.37;;;22.80;99.90;;;;;;5110103;28;20758;-71
2022/06/26 06:13:14;;;;;;;8.17;7.57;;;22.90;99.90;;;;;;5118067;27;20180;-71
2022/06/26 06:15:40;;;;;;;8.13;7.50;;;23.00;99.90;;;;;;5112155;28;20902;-71
2022/06/26 06:18:06;;;;;;;6.60;6.10;;;23.00;99.90;;;;;;5114401;28;20271;-71
2022/06/26 06:20:32;;;;;;;8.90;8.27;;;23.00;99.90;;;;;;5110418;27;20218;-71
2022/06/26 06:23:05;;;;;;;7.37;6.97;;;22.90;99.90;;;;;;5134357;27;20405;-71
2022/06/26 06:25:32;;;;;;;7.47;6.70;;;22.80;99.90;;;;;;5133860;27;20167;-71
2022/06/26 06:27:57;;;;;;;7.50;6.97;;;22.80;99.90;;;;;;5127058;27;20476;-71
2022/06/26 06:30:23;;;;;;;7.23;6.83;;;22.80;99.90;;;;;;5119601;27;20914;-71
2022/06/26 06:32:49;;;;;;;7.60;7.10;;;22.70;99.90;;;;;;5118489;27;20258;-71
2022/06/26 06:35:15;;;;;;;9.93;9.23;;;22.70;99.90;;;;;;5134880;27;20179;-71
2022/06/26 06:37:43;;;;;;;9.77;9.07;;;22.50;99.90;;;;;;5118950;27;20201;-71
2022/06/26 06:40:10;;;;;;;9.87;9.13;;;22.50;99.90;;;;;;5102796;28;20433;-71
2022/06/26 06:42:36;;;;;;;10.03;9.13;;;22.50;99.90;;;;;;5113561;28;20417;-71
2022/06/26 06:45:03;;;;;;;9.30;8.60;;;22.40;99.90;;;;;;5114146;27;20412;-71
2022/06/26 06:47:31;;;;;;;9.73;9.00;;;22.30;99.90;;;;;;5098956;28;20438;-71
2022/06/26 06:49:57;;;;;;;10.03;9.00;;;22.30;99.90;;;;;;5117054;27;20438;-71
2022/06/26 06:52:23;;;;;;;9.37;8.67;;;22.20;99.90;;;;;;5111271;27;20561;-72
2022/06/26 06:54:49;;;;;;;8.50;7.90;;;22.10;99.90;;;;;;5121985;27;20186;-70
2022/06/26 06:57:14;;;;;;;9.67;8.70;;;22.10;99.90;;;;;;5113330;28;20987;-71
2022/06/26 06:59:40;;;;;;;9.67;8.97;;;22.10;99.90;;;;;;5112792;28;20186;-71
2022/06/26 07:02:07;;;;;;;9.97;9.20;;;22.10;99.90;;;;;;5111791;27;20647;-71
2022/06/26 07:04:32;;;;;;;9.10;6.30;;;22.00;99.90;;;;;;5131874;27;20195;-70
2022/06/26 07:06:58;;;;;;;7.63;7.00;;;22.00;99.90;;;;;;5133947;27;20421;-71
2022/06/26 07:09:24;;;;;;;7.83;7.03;;;22.10;99.90;;;;;;5125345;27;20190;-69
2022/06/26 07:11:49;;;;;;;7.13;6.70;;;22.00;99.90;;;;;;5113435;27;20775;-71
2022/06/26 07:14:15;;;;;;;10.23;9.27;;;21.80;99.90;;;;;;5116842;27;20186;-70
2022/06/26 07:16:41;;;;;;;6.83;6.40;;;21.70;99.90;;;;;;5132718;27;20266;-71
2022/06/26 07:19:07;;;;;;;5.40;5.10;;;21.60;99.90;;;;;;5133804;27;20171;-69
2022/06/26 07:21:33;;;;;;;5.30;5.00;;;21.70;99.90;;;;;;5131471;27;20739;-69
2022/06/26 07:23:59;;;;;;;5.00;4.73;;;21.80;99.90;;;;;;5133811;27;20183;-69
2022/06/26 07:26:28;;;;;;;7.03;6.53;;;21.90;99.90;;;;;;5126350;27;20269;-70
2022/06/26 07:28:53;;;;;;;6.10;5.60;;;22.00;99.90;;;;;;5132628;27;20428;-69
2022/06/26 07:31:19;;;;;;;7.07;5.27;;;22.20;99.90;;;;;;5126155;27;20432;-69
2022/06/26 07:36:29;;;;;;;7.23;6.50;;;22.20;99.90;;;;;;5109932;27;20541;-72
2022/06/26 07:38:55;;;;;;;7.10;6.70;;;22.40;99.90;;;;;;5129148;27;20421;-70
2022/06/26 07:41:21;;;;;;;4.43;4.23;;;22.70;99.90;;;;;;5118122;27;20204;-69
2022/06/26 07:43:47;;;;;;;4.80;4.50;;;22.80;99.90;;;;;;5132784;27;20204;-69
2022/06/26 07:46:13;;;;;;;5.50;5.03;;;23.00;99.90;;;;;;5133258;27;20416;-69
2022/06/26 07:48:39;;;;;;;4.30;4.00;;;23.10;99.40;;;;;;5116875;28;20433;-69
2022/06/26 07:51:04;;;;;;;6.27;5.77;;;23.10;99.00;;;;;;5111603;28;20585;-69
2022/06/26 07:53:30;;;;;;;4.87;4.57;;;23.20;99.50;;;;;;5128376;28;20186;-72
2022/06/26 07:55:56;;;;;;;4.40;4.00;;;23.30;99.10;;;;;;5132254;28;20191;-69
2022/06/26 07:58:22;;;;;;;4.40;4.00;;;23.40;98.10;;;;;;5126345;28;20437;-69
2022/06/26 08:00:47;;;;;;;4.27;3.97;;;23.50;97.60;;;;;;5132296;28;20263;-69
2022/06/26 08:03:16;;;;;;;4.20;3.90;;;23.60;97.20;;;;;;5126681;28;20175;-69
2022/06/26 08:05:42;;;;;;;3.73;3.50;;;23.80;97.30;;;;;;5132563;28;20605;-69
2022/06/26 08:08:09;;;;;;;4.20;3.90;;;23.90;96.00;;;;;;5133069;27;20417;-69
2022/06/26 08:10:36;;;;;;;4.07;3.80;;;24.10;97.40;;;;;;5112234;28;20537;-72
2022/06/26 08:13:03;;;;;;;8.00;5.47;;;24.20;97.20;;;;;;5112273;28;20410;-69
2022/06/26 08:15:29;;;;;;;4.50;4.30;;;24.40;95.60;;;;;;5122063;28;20424;-69
2022/06/26 08:17:58;;;;;;;3.87;3.57;;;24.50;94.60;;;;;;5132448;28;20472;-69
2022/06/26 08:20:24;;;;;;;4.10;3.90;;;24.40;92.00;;;;;;5131352;28;20459;-70
2022/06/26 08:22:49;;;;;;;4.80;4.40;;;24.10;92.40;;;;;;5130720;28;20915;-70
2022/06/26 08:25:16;;;;;;;3.80;3.60;;;24.10;93.50;;;;;;5128132;28;20436;-69
2022/06/26 08:27:42;;;;;;;4.07;3.80;;;24.10;93.90;;;;;;5121203;28;20222;-69
2022/06/26 08:30:09;;;;;;;3.67;3.47;;;24.10;94.10;;;;;;5111211;28;20978;-70
2022/06/26 08:32:36;;;;;;;5.10;4.67;;;24.10;94.00;;;;;;5099206;28;20434;-73
2022/06/26 08:35:04;;;;;;;3.70;3.40;;;24.10;94.50;;;;;;5131757;28;20420;-70
2022/06/26 08:37:29;;;;;;;4.30;4.10;;;24.20;94.50;;;;;;5124161;28;20571;-70
2022/06/26 08:39:55;;;;;;;4.67;4.37;;;24.20;94.50;;;;;;5129267;28;20523;-71
2022/06/26 08:42:22;;;;;;;4.27;3.87;;;24.20;93.60;;;;;;5098513;28;20176;-70
2022/06/26 08:44:48;;;;;;;3.60;3.43;;;24.20;93.20;;;;;;5132037;27;20212;-70
2022/06/26 08:47:18;;;;;;;4.83;4.43;;;24.20;92.80;;;;;;5121594;27;20448;-71
2022/06/26 08:49:44;;;;;;;4.37;4.07;;;24.20;94.40;;;;;;5126766;27;20951;-70
2022/06/26 08:52:15;;;;;;;4.00;3.80;;;24.10;93.80;;;;;;5124260;27;20415;-70
2022/06/26 08:54:41;;;;;;;4.00;3.80;;;24.20;93.60;;;;;;5116360;27;20466;-69
2022/06/26 08:57:07;;;;;;;6.10;4.40;;;24.10;92.70;;;;;;5113589;28;20445;-70
2022/06/26 08:59:33;;;;;;;3.67;3.40;;;24.10;93.20;;;;;;5116082;27;20422;-70
2022/06/26 09:01:58;;;;;;;3.23;3.03;;;24.10;93.30;;;;;;5113247;27;20428;-70
2022/06/26 09:04:24;;;;;;;6.13;5.67;;;24.10;92.70;;;;;;5117497;27;20267;-70
2022/06/26 09:06:50;;;;;;;3.80;3.47;;;24.00;92.50;;;;;;5114394;28;20183;-69
2022/06/26 09:09:19;;;;;;;4.40;4.13;;;24.00;93.00;;;;;;5112481;28;20178;-69
2022/06/26 09:11:45;;;;;;;2.90;2.80;;;23.90;93.10;;;;;;5114769;28;20637;-69
2022/06/26 09:14:13;;;;;;;3.40;3.20;;;23.90;93.00;;;;;;5115262;28;20482;-69
2022/06/26 09:16:43;;;;;;;3.10;3.00;;;23.90;92.50;;;;;;5111329;28;20461;-69
2022/06/26 09:19:10;;;;;;;3.10;2.90;;;23.90;93.10;;;;;;5113417;28;20432;-69
2022/06/26 09:21:36;;;;;;;3.53;3.27;;;23.90;93.10;;;;;;5110948;28;20549;-69
2022/06/26 09:24:02;;;;;;;3.33;3.13;;;23.80;93.30;;;;;;5114816;27;20591;-69
2022/06/26 09:26:28;;;;;;;5.43;3.90;;;23.80;93.40;;;;;;5114391;27;20301;-68
2022/06/26 09:28:54;;;;;;;3.77;3.50;;;23.70;92.80;;;;;;5106783;28;20519;-69
2022/06/26 09:31:21;;;;;;;3.17;2.97;;;23.70;92.80;;;;;;5114040;28;20176;-69
2022/06/26 09:33:47;;;;;;;3.70;3.40;;;23.70;93.40;;;;;;5114331;28;20183;-70
2022/06/26 09:36:18;;;;;;;3.50;3.30;;;23.60;93.50;;;;;;5113484;27;20458;-69
2022/06/26 09:38:52;;;;;;;3.57;3.37;;;23.60;93.50;;;;;;5114081;28;20905;-69
2022/06/26 09:41:32;;;;;;;3.47;3.27;;;23.50;93.10;;;;;;5138276;27;20759;-70
2022/06/26 09:43:58;;;;;;;8.73;7.10;;;23.50;93.20;;;;;;5114116;28;20420;-69
2022/06/26 09:46:30;;;;;;;3.03;2.93;;;23.50;93.70;;;;;;5114785;28;20414;-70
2022/06/26 09:48:57;;;;;;;3.97;3.67;;;23.50;94.20;;;;;;5111950;28;20421;-70
2022/06/26 09:51:23;;;;;;;116.47;94.87;;;23.50;95.10;;;;;;5115084;28;20518;-70
2022/06/26 09:53:49;;;;;;;29.77;25.33;;;23.50;94.40;;;;;;5112569;28;20791;-70
2022/06/26 09:56:16;;;;;;;5.37;5.07;;;23.50;94.60;;;;;;5105666;27;20543;-70
2022/06/26 09:58:42;;;;;;;3.30;3.10;;;23.50;94.40;;;;;;5066425;28;20429;-70
2022/06/26 10:06:39;;;;;;;5.43;5.03;;;23.50;92.70;;;;;;5101921;27;20429;-70
2022/06/26 10:09:07;;;;;;;5.47;4.97;;;23.40;92.30;;;;;;5108740;28;20429;-70
2022/06/26 10:11:36;;;;;;;3.60;3.40;;;23.40;93.10;;;;;;5114969;28;20409;-69
2022/06/26 10:14:04;;;;;;;6.23;5.60;;;23.40;93.90;;;;;;5109641;28;20423;-69
2022/06/26 10:16:54;;;;;;;16.27;9.63;;;23.40;95.10;;;;;;5098810;28;20896;-70
2022/06/26 10:19:38;;;;;;;12.23;8.40;;;23.40;96.10;;;;;;5109112;28;20987;-70
2022/06/26 10:22:04;;;;;;;4.70;4.40;;;23.40;95.40;;;;;;5114750;28;20453;-69
2022/06/26 10:24:30;;;;;;;11.43;10.30;;;23.50;95.30;;;;;;5114800;28;20445;-70
2022/06/26 10:27:02;;;;;;;4.00;3.80;;;23.50;95.70;;;;;;5109295;27;20461;-69
2022/06/26 10:29:36;;;;;;;4.13;3.93;;;23.50;94.50;;;;;;5110456;27;20193;-71
2022/06/26 10:32:04;;;;;;;3.57;3.30;;;23.30;93.40;;;;;;5122598;27;20430;-69
2022/06/26 10:34:31;;;;;;;3.50;3.30;;;23.30;93.60;;;;;;5104389;27;20453;-70
2022/06/26 10:37:15;;;;;;;3.20;3.00;;;23.20;93.60;;;;;;5133044;27;20471;-68
2022/06/26 10:39:43;;;;;;;4.00;3.80;;;23.20;94.00;;;;;;5127400;27;20462;-73
2022/06/26 10:45:14;;;;;;;4.10;3.80;;;23.30;93.90;;;;;;5112920;28;20438;-69
2022/06/26 10:47:49;;;;;;;3.90;3.70;;;23.50;94.30;;;;;;5113592;28;20413;-73
2022/06/26 10:50:27;;;;;;;3.30;3.17;;;23.60;94.00;;;;;;5113380;28;20412;-69
2022/06/26 10:53:30;;;;;;;3.33;3.13;;;23.70;94.30;;;;;;5111459;27;20421;-69
2022/06/26 10:56:01;;;;;;;3.70;3.50;;;23.70;93.80;;;;;;5092300;28;20430;-69
2022/06/26 10:58:29;;;;;;;3.90;3.70;;;23.80;93.30;;;;;;5096884;28;20438;-70
2022/06/26 11:01:01;;;;;;;5.10;4.80;;;23.80;93.60;;;;;;5107778;27;20434;-69
2022/06/26 11:03:28;;;;;;;4.57;4.27;;;23.90;94.70;;;;;;5100128;28;20437;-69
2022/06/26 11:06:14;;;;;;;5.07;4.67;;;23.80;93.10;;;;;;5126411;27;20504;-69
2022/06/26 11:08:51;;;;;;;5.43;5.03;;;23.90;93.50;;;;;;5127186;27;20418;-69
2022/06/26 11:11:20;;;;;;;5.10;4.90;;;23.50;92.00;;;;;;5112195;28;20472;-69
2022/06/26 11:13:55;;;;;;;5.03;4.83;;;23.70;93.90;;;;;;5112359;28;20421;-71
2022/06/26 11:16:42;;;;;;;4.37;4.13;;;23.90;94.60;;;;;;5112911;28;20801;-70
2022/06/26 11:19:19;;;;;;;5.43;5.03;;;24.20;94.70;;;;;;5115303;27;20501;-70
2022/06/26 11:21:45;;;;;;;5.43;5.03;;;24.40;94.10;;;;;;5111444;28;20560;-73
2022/06/26 11:24:11;;;;;;;5.37;5.00;;;24.50;93.60;;;;;;5111510;28;20517;-69
2022/06/26 11:26:36;;;;;;;5.93;5.53;;;24.70;93.50;;;;;;5110572;28;20183;-70
2022/06/26 11:29:04;;;;;;;4.80;4.40;;;24.90;93.30;;;;;;5101672;27;20204;-69
2022/06/26 11:31:32;;;;;;;5.67;5.37;;;25.00;92.90;;;;;;5133463;27;20175;-70
2022/06/26 11:34:09;;;;;;;7.10;6.70;;;25.10;93.80;;;;;;5121723;27;20417;-69
2022/06/26 11:36:35;;;;;;;6.97;6.40;;;25.20;93.80;;;;;;5112726;28;20456;-69
2022/06/26 11:39:01;;;;;;;4.73;4.53;;;25.20;91.90;;;;;;5101361;28;20525;-70
2022/06/26 11:41:27;;;;;;;69.43;62.13;;;25.20;90.90;;;;;;5112193;28;20258;-70
2022/06/26 11:43:56;;;;;;;14.97;13.53;;;25.20;91.50;;;;;;5102420;28;20426;-70
2022/06/26 11:46:23;;;;;;;66.97;55.57;;;25.20;92.20;;;;;;5104220;28;20575;-69
2022/06/26 11:48:51;;;;;;;32.60;25.13;;;25.20;91.60;;;;;;5100870;28;20529;-70
2022/06/26 11:51:18;;;;;;;7.00;6.50;;;25.20;91.20;;;;;;5113189;27;20924;-69
2022/06/26 11:53:49;;;;;;;4.73;4.43;;;25.20;92.60;;;;;;5107202;28;20454;-74
2022/06/26 11:56:29;;;;;;;4.60;4.40;;;25.10;91.80;;;;;;5113282;28;20474;-69
2022/06/26 11:58:57;;;;;;;5.77;5.37;;;25.10;90.00;;;;;;5097941;28;20860;-69
2022/06/26 12:01:32;;;;;;;5.23;4.93;;;25.00;90.70;;;;;;5117531;28;20409;-69
2022/06/26 12:03:57;;;;;;;4.87;4.60;;;25.00;91.50;;;;;;5106792;28;20491;-69
2022/06/26 12:06:40;;;;;;;7.70;7.00;;;25.00;91.40;;;;;;5107188;28;20834;-69
2022/06/26 12:09:23;;;;;;;5.00;4.70;;;25.00;91.60;;;;;;5100328;28;20174;-69
2022/06/26 12:11:52;;;;;;;4.47;4.27;;;24.90;91.70;;;;;;5122192;28;20431;-69
2022/06/26 12:14:22;;;;;;;4.80;4.50;;;24.90;91.60;;;;;;5098195;28;20438;-70
2022/06/26 12:17:04;;;;;;;4.83;4.53;;;24.90;91.20;;;;;;5100225;28;21213;-70
2022/06/26 12:19:38;;;;;;;4.77;4.57;;;24.90;91.50;;;;;;5098954;28;20437;-69
2022/06/26 12:22:04;;;;;;;91.93;78.80;;;24.90;90.60;;;;;;5111588;27;20468;-69
2022/06/26 12:24:30;;;;;;;280.50;245.07;;;24.90;90.60;;;;;;5129260;27;20432;-69
2022/06/26 12:26:57;;;;;;;28.07;25.33;;;24.90;87.60;;;;;;5121940;27;20877;-71
2022/06/26 12:29:25;;;;;;;6.07;5.70;;;24.90;88.70;;;;;;5123824;27;20515;-70
2022/06/26 12:31:53;;;;;;;5.80;5.50;;;24.90;88.60;;;;;;5126647;27;20433;-69
2022/06/26 12:34:19;;;;;;;6.33;5.90;;;24.90;90.20;;;;;;5111136;27;20520;-70
2022/06/26 12:36:45;;;;;;;6.20;5.90;;;25.00;90.20;;;;;;5093389;27;21519;-69
2022/06/26 12:39:11;;;;;;;6.50;6.00;;;24.90;90.50;;;;;;5112128;27;20583;-69
2022/06/26 12:41:38;;;;;;;9.40;8.70;;;24.90;89.60;;;;;;5112543;27;20176;-69
2022/06/26 12:44:04;;;;;;;5.90;5.60;;;24.90;91.00;;;;;;5117628;27;20428;-72
2022/06/26 12:46:31;;;;;;;6.23;5.93;;;24.90;90.60;;;;;;5127503;27;20515;-69
2022/06/26 12:48:58;;;;;;;8.20;7.60;;;24.80;90.40;;;;;;5126805;27;20754;-69
2022/06/26 12:51:24;;;;;;;6.37;5.97;;;24.80;91.60;;;;;;5113680;28;20417;-69
2022/06/26 12:53:51;;;;;;;7.53;7.00;;;24.70;91.30;;;;;;5125095;27;20495;-69
2022/06/26 12:56:17;;;;;;;66.20;59.47;;;24.70;91.60;;;;;;5132594;27;21006;-69